Time;durP1;ratioP1;P1;durP2;ratioP2;P2;SDS_P1;SDS_P2;PMS_P1;PMS_P2;Temp;Humidity;BMP_temperature;BMP_pressure;BME280_temperature;BME280_humidity;BME280_pressure;Samples;Min_cycle;Max_cycle;Signal;HPM_P1;HPM_P2
2021/05/08 00:01:28;;;;;;;7.65;4.47;;;4.70;99.90;;;;;;6724214;88;20234;-77
2021/05/08 00:11:28;;;;;;;7.30;3.83;;;4.50;99.90;;;;;;6718158;88;20807;-77
2021/05/08 00:21:29;;;;;;;6.63;3.70;;;4.40;99.90;;;;;;6722041;88;20203;-79
2021/05/08 00:31:30;;;;;;;5.62;3.72;;;4.10;99.90;;;;;;6719671;88;20505;-77
2021/05/08 00:41:30;;;;;;;6.80;3.72;;;4.00;99.90;;;;;;6719760;88;20227;-77
2021/05/08 00:51:31;;;;;;;6.78;3.92;;;4.10;99.90;;;;;;6722945;88;20232;-76
2021/05/08 01:01:32;;;;;;;7.43;4.05;;;4.00;99.90;;;;;;6722415;88;20219;-77
2021/05/08 01:11:34;;;;;;;6.65;3.80;;;3.80;99.90;;;;;;6711972;88;20186;-79
2021/05/08 01:21:34;;;;;;;6.22;4.05;;;3.80;99.90;;;;;;6708279;88;20714;-77
2021/05/08 01:31:35;;;;;;;5.68;3.45;;;3.60;99.90;;;;;;6705329;88;20201;-76
2021/05/08 01:41:35;;;;;;;5.80;3.58;;;3.40;99.90;;;;;;6705728;88;20258;-76
2021/05/08 01:51:36;;;;;;;7.40;4.30;;;3.20;99.90;;;;;;6709078;88;20199;-78
2021/05/08 02:01:36;;;;;;;6.78;4.43;;;3.20;99.90;;;;;;6709296;88;20210;-77
2021/05/08 02:11:37;;;;;;;7.22;3.92;;;3.50;99.90;;;;;;6707079;88;20680;-77
2021/05/08 02:21:37;;;;;;;7.32;3.90;;;3.40;99.90;;;;;;6708351;88;20217;-76
2021/05/08 02:31:38;;;;;;;6.80;3.53;;;3.30;99.90;;;;;;6708214;88;20677;-77
2021/05/08 02:41:38;;;;;;;8.20;3.95;;;3.30;99.90;;;;;;6708737;88;20306;-77
2021/05/08 02:51:39;;;;;;;7.32;4.20;;;3.20;99.90;;;;;;6708553;88;20322;-76
2021/05/08 03:01:39;;;;;;;6.80;3.62;;;3.30;99.90;;;;;;6708587;88;20303;-78
2021/05/08 03:11:41;;;;;;;6.25;3.80;;;3.40;99.90;;;;;;6708586;88;20188;-77
2021/05/08 03:21:42;;;;;;;6.50;4.10;;;3.40;99.90;;;;;;6708890;88;20346;-77
2021/05/08 03:31:42;;;;;;;6.22;4.05;;;3.40;99.90;;;;;;6708503;88;20611;-77
2021/05/08 03:41:43;;;;;;;5.75;3.85;;;3.30;99.90;;;;;;6707559;88;20237;-77
2021/05/08 03:51:43;;;;;;;8.43;4.62;;;3.20;99.90;;;;;;6703915;88;20633;-76
2021/05/08 04:01:44;;;;;;;6.82;4.28;;;3.20;99.90;;;;;;6707797;88;20783;-76
2021/05/08 04:11:45;;;;;;;7.18;4.00;;;3.10;99.90;;;;;;6707215;88;20219;-76
2021/05/08 04:21:46;;;;;;;6.47;3.92;;;3.30;99.90;;;;;;6707284;88;20220;-77
2021/05/08 04:31:46;;;;;;;7.65;4.07;;;3.40;99.90;;;;;;6707550;88;20224;-77
2021/05/08 04:42:28;;;;;;;6.43;3.57;;;3.60;99.90;;;;;;6719908;78;20283;-79
2021/05/08 04:52:28;;;;;;;8.30;4.00;;;3.90;99.90;;;;;;6715152;88;20551;-79
2021/05/08 05:02:29;;;;;;;6.85;3.47;;;4.30;99.90;;;;;;6730623;88;20696;-78
2021/05/08 05:12:29;;;;;;;6.43;2.92;;;4.50;99.90;;;;;;6732637;88;20510;-78
2021/05/08 05:22:30;;;;;;;6.10;3.58;;;4.90;99.90;;;;;;6728802;88;20204;-79
2021/05/08 05:32:30;;;;;;;7.12;4.03;;;5.20;99.90;;;;;;6722302;88;20184;-76
2021/05/08 05:42:31;;;;;;;6.32;3.03;;;5.60;99.90;;;;;;6722553;88;20607;-78
2021/05/08 05:52:32;;;;;;;6.20;3.20;;;6.10;99.90;;;;;;6719586;88;20207;-80
2021/05/08 06:02:34;;;;;;;8.67;3.10;;;6.60;99.90;;;;;;6723228;88;20276;-78
2021/05/08 06:12:34;;;;;;;6.12;3.20;;;7.10;99.90;;;;;;6706320;88;20493;-78
2021/05/08 06:22:35;;;;;;;6.35;3.22;;;7.70;99.90;;;;;;6706635;88;20215;-78
2021/05/08 06:32:35;;;;;;;6.10;3.20;;;8.30;99.90;;;;;;6708554;88;20193;-79
2021/05/08 06:42:36;;;;;;;5.87;3.10;;;8.90;99.90;;;;;;6722787;88;20725;-77
2021/05/08 06:52:37;;;;;;;5.90;2.90;;;9.40;99.90;;;;;;6722164;88;20537;-77
2021/05/08 07:02:37;;;;;;;4.53;2.92;;;9.50;99.90;;;;;;6724006;88;20221;-78
2021/05/08 07:12:39;;;;;;;4.85;2.28;;;9.90;99.90;;;;;;6722998;88;20232;-78
2021/05/08 07:22:39;;;;;;;5.40;2.45;;;10.40;99.90;;;;;;6727552;88;20350;-77
2021/05/08 07:32:40;;;;;;;4.90;2.58;;;10.70;99.90;;;;;;6728429;88;20237;-78
2021/05/08 07:42:41;;;;;;;6.07;3.60;;;10.60;99.90;;;;;;6728394;88;20295;-77
2021/05/08 07:52:41;;;;;;;5.35;2.90;;;10.50;99.90;;;;;;6726487;88;21144;-79
2021/05/08 08:02:42;;;;;;;6.05;2.50;;;10.70;99.90;;;;;;6726508;88;20354;-78
2021/05/08 08:12:43;;;;;;;5.97;3.00;;;11.20;99.90;;;;;;6718152;88;20414;-77
2021/05/08 08:22:45;;;;;;;6.53;3.22;;;11.40;99.90;;;;;;6720489;88;20225;-78
2021/05/08 08:32:45;;;;;;;7.07;3.28;;;11.60;99.90;;;;;;6717615;88;20205;-78
2021/05/08 08:42:46;;;;;;;5.20;2.50;;;12.30;99.90;;;;;;6716952;88;20381;-77
2021/05/08 08:52:47;;;;;;;6.82;2.85;;;12.50;99.90;;;;;;6713238;88;20959;-78
2021/05/08 09:02:49;;;;;;;4.03;2.25;;;13.10;99.90;;;;;;6715313;88;20223;-77
2021/05/08 09:12:52;;;;;;;4.30;2.60;;;13.70;99.90;;;;;;6715955;88;20181;-77
2021/05/08 09:22:52;;;;;;;6.45;2.50;;;13.60;98.20;;;;;;6713321;88;20177;-77
2021/05/08 09:33:00;;;;;;;4.40;2.35;;;13.90;97.50;;;;;;6716969;88;20211;-76
2021/05/08 09:43:00;;;;;;;3.78;2.25;;;14.50;94.90;;;;;;6716906;88;20196;-77
2021/05/08 09:53:01;;;;;;;5.15;2.10;;;14.60;94.60;;;;;;6716975;88;20222;-76
2021/05/08 10:03:10;;;;;;;5.68;2.20;;;15.00;93.00;;;;;;6717551;88;20212;-76
2021/05/08 10:13:12;;;;;;;8.52;2.37;;;15.40;91.10;;;;;;6718538;88;20729;-76
2021/05/08 10:23:13;;;;;;;5.05;2.20;;;15.60;89.80;;;;;;6726912;88;20201;-77
2021/05/08 10:33:35;;;;;;;6.12;2.33;;;15.70;86.10;;;;;;6721618;88;20202;-77
2021/05/08 10:43:43;;;;;;;4.50;2.17;;;15.70;85.70;;;;;;6708254;88;20241;-79
2021/05/08 10:53:45;;;;;;;4.87;1.92;;;16.20;86.90;;;;;;6720756;88;20174;-78
2021/05/08 11:03:45;;;;;;;3.53;1.95;;;16.50;85.00;;;;;;6723343;88;20184;-80
2021/05/08 11:13:50;;;;;;;4.47;1.77;;;16.20;86.30;;;;;;6720751;88;20578;-79
2021/05/08 11:24:11;;;;;;;2.13;1.33;;;15.70;87.70;;;;;;6720940;88;20253;-77
2021/05/08 11:34:19;;;;;;;2.40;1.30;;;15.70;89.30;;;;;;6719360;88;20714;-77
2021/05/08 11:44:24;;;;;;;1.90;0.80;;;15.60;90.40;;;;;;6704806;88;20188;-79
2021/05/08 11:54:26;;;;;;;2.47;1.00;;;16.10;86.00;;;;;;6703187;88;20223;-78
2021/05/08 12:04:43;;;;;;;2.85;0.90;;;16.70;84.90;;;;;;6703104;88;20592;-79
2021/05/08 12:14:46;;;;;;;1.55;0.80;;;16.40;82.80;;;;;;6717573;88;20185;-77
2021/05/08 12:24:49;;;;;;;2.45;1.00;;;16.50;78.40;;;;;;6721675;88;20218;-78
2021/05/08 12:34:54;;;;;;;2.22;1.12;;;16.40;77.10;;;;;;6722610;88;20746;-79
2021/05/08 12:45:00;;;;;;;2.90;1.10;;;16.10;79.30;;;;;;6722021;88;20184;-78
2021/05/08 12:55:02;;;;;;;3.83;1.70;;;15.90;80.50;;;;;;6722802;88;20388;-79
2021/05/08 13:05:11;;;;;;;2.33;1.10;;;15.70;84.60;;;;;;6721636;88;20583;-78
2021/05/08 13:15:21;;;;;;;3.80;1.45;;;16.10;86.70;;;;;;6700964;88;20318;-78
2021/05/08 13:25:21;;;;;;;2.15;0.90;;;15.80;92.40;;;;;;6717848;88;20267;-78
2021/05/08 13:35:24;;;;;;;1.92;1.20;;;15.40;90.60;;;;;;6716995;88;20758;-79
2021/05/08 13:45:24;;;;;;;2.65;1.00;;;15.90;91.60;;;;;;6717805;88;20223;-77
2021/05/08 13:55:25;;;;;;;3.72;1.25;;;16.10;89.30;;;;;;6718995;88;20445;-78
2021/05/08 14:05:25;;;;;;;1.80;1.00;;;16.20;90.20;;;;;;6719545;88;20676;-78
2021/05/08 14:15:26;;;;;;;3.50;1.25;;;16.20;90.20;;;;;;6707371;88;20200;-78
2021/05/08 14:25:26;;;;;;;2.33;1.23;;;16.50;90.00;;;;;;6721179;88;20180;-78
2021/05/08 14:35:28;;;;;;;2.33;0.90;;;16.50;90.10;;;;;;6723259;88;20678;-78
2021/05/08 14:45:29;;;;;;;2.60;1.10;;;16.80;89.00;;;;;;6704118;88;20189;-79
2021/05/08 14:55:30;;;;;;;2.72;0.95;;;17.20;89.60;;;;;;6722476;88;20691;-78
2021/05/08 15:05:30;;;;;;;2.83;0.90;;;17.20;89.10;;;;;;6722282;88;20819;-78
2021/05/08 15:15:31;;;;;;;1.70;0.80;;;17.20;88.40;;;;;;6700845;88;20232;-79
2021/05/08 15:25:31;;;;;;;1.75;0.73;;;17.20;89.30;;;;;;6718527;88;20237;-78
2021/05/08 15:35:32;;;;;;;2.28;1.00;;;17.80;89.90;;;;;;6718827;88;20185;-78
2021/05/08 15:45:32;;;;;;;3.35;0.90;;;18.00;90.30;;;;;;6715330;88;20564;-77
2021/05/08 15:55:33;;;;;;;2.53;1.00;;;18.40;91.70;;;;;;6717682;88;20290;-78
2021/05/08 16:05:34;;;;;;;4.10;1.00;;;18.40;92.40;;;;;;6718822;88;20192;-80
2021/05/08 16:15:35;;;;;;;2.05;1.10;;;18.20;92.40;;;;;;6712195;88;20295;-78
2021/05/08 16:25:36;;;;;;;3.15;1.00;;;18.30;93.10;;;;;;6716672;88;20564;-78
2021/05/08 16:35:38;;;;;;;2.85;1.50;;;18.30;93.90;;;;;;6719279;88;20211;-78
2021/05/08 16:45:41;;;;;;;3.53;1.30;;;18.40;94.30;;;;;;6717834;88;20204;-76
2021/05/08 16:55:41;;;;;;;2.33;1.00;;;18.40;95.00;;;;;;6714471;88;20227;-77
2021/05/08 17:05:42;;;;;;;4.15;1.70;;;18.50;95.10;;;;;;6716001;88;20254;-76
2021/05/08 17:15:42;;;;;;;2.00;1.20;;;19.00;95.10;;;;;;6715416;88;20220;-76
2021/05/08 17:25:43;;;;;;;1.95;0.90;;;19.30;94.70;;;;;;6709966;88;20244;-78
2021/05/08 17:35:44;;;;;;;3.10;1.15;;;18.50;96.10;;;;;;6712497;88;20189;-77
2021/05/08 17:45:44;;;;;;;2.70;0.93;;;18.40;97.00;;;;;;6704446;88;20319;-77
2021/05/08 17:55:45;;;;;;;3.50;1.65;;;18.40;97.20;;;;;;6709094;88;20628;-76
2021/05/08 18:05:45;;;;;;;3.33;1.35;;;18.30;97.70;;;;;;6715635;88;20213;-78
2021/05/08 18:15:46;;;;;;;2.90;1.10;;;18.20;98.20;;;;;;6709041;88;20181;-77
2021/05/08 18:25:46;;;;;;;2.65;1.55;;;18.20;98.50;;;;;;6711465;88;20250;-77
2021/05/08 18:35:47;;;;;;;3.37;1.30;;;18.10;98.90;;;;;;6717774;88;20252;-78
2021/05/08 18:45:48;;;;;;;2.60;1.50;;;17.90;99.70;;;;;;6715781;88;20232;-77
2021/05/08 18:55:48;;;;;;;3.08;1.67;;;17.80;99.90;;;;;;6716740;88;20198;-77
2021/05/08 19:05:49;;;;;;;6.85;1.80;;;17.70;99.90;;;;;;6712130;88;20189;-78
2021/05/08 19:15:50;;;;;;;3.50;1.40;;;17.60;99.90;;;;;;6719110;88;20190;-79
2021/05/08 19:25:50;;;;;;;3.72;1.90;;;17.50;99.90;;;;;;6718007;88;20502;-77
2021/05/08 19:35:51;;;;;;;2.87;1.90;;;17.30;99.90;;;;;;6717919;88;20211;-78
2021/05/08 19:45:52;;;;;;;6.10;2.27;;;17.10;99.90;;;;;;6718579;88;20738;-77
2021/05/08 19:55:53;;;;;;;3.55;1.95;;;16.90;99.90;;;;;;6720674;88;20800;-78
2021/05/08 20:05:54;;;;;;;4.27;2.30;;;16.70;99.90;;;;;;6720560;88;20190;-79
2021/05/08 20:15:55;;;;;;;3.72;2.28;;;16.60;99.90;;;;;;6718541;88;20306;-77
2021/05/08 20:25:55;;;;;;;5.18;2.80;;;16.50;99.90;;;;;;6714814;88;20202;-77
2021/05/08 20:35:56;;;;;;;3.60;2.12;;;16.50;99.90;;;;;;6719784;88;20344;-77
2021/05/08 20:45:56;;;;;;;3.43;2.23;;;16.40;99.90;;;;;;6716637;88;20186;-77
2021/05/08 20:55:58;;;;;;;2.55;1.60;;;16.30;99.90;;;;;;6719635;88;20499;-77
2021/05/08 21:05:58;;;;;;;3.20;1.80;;;16.20;99.90;;;;;;6719195;88;20277;-77
2021/05/08 21:15:59;;;;;;;3.55;1.70;;;16.00;99.90;;;;;;6720357;88;20193;-78
2021/05/08 21:26:01;;;;;;;3.17;1.60;;;15.80;99.90;;;;;;6724807;88;20233;-77
2021/05/08 21:36:01;;;;;;;3.28;1.40;;;15.70;99.90;;;;;;6719524;88;20254;-78
2021/05/08 21:46:03;;;;;;;3.53;1.40;;;15.50;99.90;;;;;;6723234;88;20237;-77
2021/05/08 21:56:04;;;;;;;3.40;1.50;;;15.40;99.90;;;;;;6722880;88;20559;-77
2021/05/08 22:06:04;;;;;;;3.17;1.52;;;15.40;99.90;;;;;;6722775;88;20232;-78
2021/05/08 22:16:07;;;;;;;2.20;1.27;;;15.30;99.90;;;;;;6721664;88;20236;-78
2021/05/08 22:26:08;;;;;;;3.65;1.42;;;15.30;99.90;;;;;;6724160;88;20255;-77
2021/05/08 22:36:09;;;;;;;3.55;1.80;;;15.20;99.90;;;;;;6720797;88;20633;-77
2021/05/08 22:46:10;;;;;;;3.30;1.50;;;15.10;99.90;;;;;;6721262;88;20185;-77
2021/05/08 22:56:11;;;;;;;2.30;1.60;;;14.90;99.90;;;;;;6720698;88;20185;-78
2021/05/08 23:06:12;;;;;;;2.72;1.60;;;14.70;99.90;;;;;;6720942;88;20771;-78
2021/05/08 23:16:12;;;;;;;3.90;1.85;;;14.50;99.90;;;;;;6721450;88;20636;-76
2021/05/08 23:26:13;;;;;;;4.30;1.98;;;14.40;99.90;;;;;;6720972;88;20241;-78
2021/05/08 23:36:13;;;;;;;4.15;2.17;;;14.10;99.90;;;;;;6721107;88;20707;-77
2021/05/08 23:46:14;;;;;;;3.78;2.10;;;13.90;99.90;;;;;;6719482;88;20182;-77
2021/05/08 23:56:14;;;;;;;3.35;2.00;;;13.70;99.90;;;;;;6720703;88;20200;-77
